Погода Планалтинана неделю

Гояс, Бразилия

22 - 28 июля
  • 22июля
    Сегодня
    +14°
    +26°
    Ясно и безоблачно
    ВремяПогодаТемператураВлажностьДавлениеВетер, м/сВероятность осадков
    00:00Ясно и безоблачно+16°C53 %676 мм3.1 м/с5 %
    03:00Ясно и безоблачно+14°C58 %674 мм2.6 м/с5 %
    06:00Ясно и безоблачно+14°C56 %675 мм3.3 м/с5 %
    09:00Ясно и безоблачно+19°C51 %678 мм4.4 м/с5 %
    12:00Ясно и безоблачно+24°C40 %678 мм3.8 м/с5 %
    15:00Ясно и безоблачно+25°C35 %676 мм3.2 м/с5 %
    18:00Ясно и безоблачно+24°C38 %677 мм2.9 м/с5 %
    21:00Ясно и безоблачно+20°C47 %677 мм3.3 м/с5 %
  • 23июля
    Вторник
    +14°
    +27°
    Небольшая облачность
    ВремяПогодаТемператураВлажностьДавлениеВетер, м/сВероятность осадков
    00:00Ясно и безоблачно+17°C55 %676 мм3.1 м/с5 %
    03:00Ясно и безоблачно+16°C59 %675 мм3.3 м/с5 %
    06:00Ясно и безоблачно+15°C62 %675 мм3.0 м/с5 %
    09:00Ясно и безоблачно+20°C47 %678 мм3.9 м/с5 %
    12:00Ясно и безоблачно+25°C35 %679 мм3.5 м/с5 %
    15:00Небольшая облачность+26°C31 %677 мм3.1 м/с5 %
    18:00Ясно и безоблачно+24°C38 %677 мм2.7 м/с5 %
    21:00Ясно и безоблачно+21°C46 %677 мм3.6 м/с5 %
  • 24июля
    Среда
    +13°
    +27°
    Ясно и безоблачно
    ВремяПогодаТемператураВлажностьДавлениеВетер, м/сВероятность осадков
    00:00Ясно и безоблачно+18°C49 %677 мм3.7 м/с5 %
    03:00Ясно и безоблачно+16°C47 %675 мм3.4 м/с5 %
    06:00Ясно и безоблачно+15°C52 %676 мм3.8 м/с5 %
    09:00Ясно и безоблачно+19°C47 %678 мм5.1 м/с5 %
    12:00Ясно и безоблачно+24°C34 %679 мм3.7 м/с5 %
    15:00Ясно и безоблачно+26°C28 %677 мм2.3 м/с5 %
    18:00Ясно и безоблачно+24°C42 %677 мм1.8 м/с5 %
    21:00Ясно и безоблачно+21°C43 %678 мм2.9 м/с5 %
  • 25июля
    Четверг
    +13°
    +27°
    Ясно и безоблачно
    ВремяПогодаТемператураВлажностьДавлениеВетер, м/сВероятность осадков
    00:00Ясно и безоблачно+17°C48 %677 мм3.5 м/с5 %
    03:00Ясно и безоблачно+14°C45 %675 мм3.3 м/с5 %
    06:00Ясно и безоблачно+15°C47 %675 мм3.7 м/с5 %
    09:00Ясно и безоблачно+20°C41 %678 мм4.0 м/с5 %
    12:00Ясно и безоблачно+25°C32 %678 мм1.9 м/с5 %
    15:00Ясно и безоблачно+27°C29 %676 мм1.2 м/с5 %
    18:00Ясно и безоблачно+25°C39 %676 мм1.8 м/с5 %
    21:00Ясно и безоблачно+21°C38 %676 мм3.1 м/с5 %
Мы используем cookies
Соглашаюсь